createdAt,value
2022-12-25T00:06:47.652Z,83
2022-12-25T00:07:54.771Z,78
2022-12-25T00:09:01.940Z,79
2022-12-25T00:10:09.201Z,74
2022-12-25T02:17:39.728Z,45
2022-12-25T02:18:49.918Z,45
2022-12-25T02:19:57.403Z,44
2022-12-25T02:21:12.834Z,42
2022-12-25T04:29:22.305Z,35
2022-12-25T04:30:34.265Z,39
2022-12-25T04:31:46.191Z,34
2022-12-25T04:32:58.595Z,36
2022-12-25T04:34:10.835Z,39
2022-12-25T04:39:26.139Z,45
2022-12-25T04:40:33.204Z,39
2022-12-25T04:41:40.081Z,45
2022-12-25T04:42:47.275Z,40
2022-12-25T04:43:54.564Z,41
2022-12-25T04:45:39.852Z,39
2022-12-25T04:46:46.850Z,37
2022-12-25T04:47:53.988Z,30
2022-12-25T04:49:01.298Z,34
2022-12-25T04:50:08.233Z,43
2022-12-25T04:51:17.018Z,39
2022-12-25T04:52:24.148Z,33
2022-12-25T04:53:31.224Z,39
2022-12-25T04:54:38.402Z,39
2022-12-25T04:55:45.246Z,32
2022-12-25T04:57:09.981Z,38
2022-12-25T04:58:17.004Z,27
2022-12-25T04:59:24.234Z,33
2022-12-25T05:00:31.335Z,32
2022-12-25T05:01:38.280Z,26
2022-12-25T05:02:46.104Z,29
2022-12-25T05:03:52.984Z,34
2022-12-25T05:05:00.392Z,31
2022-12-25T05:06:07.525Z,28
2022-12-25T05:07:14.486Z,31
2022-12-25T05:35:26.407Z,44
2022-12-25T05:36:33.506Z,47
2022-12-25T05:37:40.588Z,46
2022-12-25T05:38:47.537Z,42
2022-12-25T05:59:47.145Z,39
2022-12-25T06:00:54.352Z,36
2022-12-25T06:02:01.593Z,36
2022-12-25T06:03:09.036Z,39
2022-12-25T06:04:15.898Z,42
2022-12-25T06:13:08.336Z,42
2022-12-25T06:14:15.390Z,49
2022-12-25T06:15:22.736Z,51
2022-12-25T06:16:35.745Z,44
2022-12-25T06:17:37.047Z,55
2022-12-25T06:22:27.047Z,46
2022-12-25T06:23:34.082Z,45
2022-12-25T06:24:41.194Z,49
2022-12-25T06:25:48.336Z,42
2022-12-25T06:26:55.432Z,46
2022-12-25T06:42:05.044Z,47
2022-12-25T06:43:11.952Z,45
2022-12-25T06:44:19.112Z,46
2022-12-25T06:45:26.375Z,48
2022-12-25T06:54:40.809Z,48
2022-12-25T06:55:47.954Z,44
2022-12-25T06:56:55.087Z,42
2022-12-25T06:58:02.330Z,41
2022-12-25T06:59:09.405Z,37
2022-12-25T07:00:21.878Z,42
2022-12-25T07:01:28.970Z,39
2022-12-25T07:02:36.200Z,39
2022-12-25T07:03:42.885Z,32
2022-12-25T07:04:50.100Z,33
2022-12-25T07:06:10.387Z,33
2022-12-25T07:07:17.538Z,44
2022-12-25T07:08:24.797Z,38
2022-12-25T07:09:32.052Z,41
2022-12-25T07:10:39.274Z,42
2022-12-25T07:38:06.189Z,30
2022-12-25T07:39:13.298Z,29
2022-12-25T07:40:20.468Z,28
2022-12-25T07:41:27.702Z,31
2022-12-25T07:42:36.074Z,31
2022-12-25T07:43:43.251Z,32
2022-12-25T07:44:50.372Z,26
2022-12-25T07:45:57.611Z,25
2022-12-25T07:47:04.693Z,28
2022-12-25T07:52:04.470Z,33
2022-12-25T07:53:11.347Z,37
2022-12-25T07:54:17.993Z,39
2022-12-25T07:55:25.137Z,46
2022-12-25T07:56:32.329Z,37
2022-12-25T07:58:57.639Z,37
2022-12-25T08:00:04.693Z,47
2022-12-25T08:01:12.492Z,46
2022-12-25T08:02:25.491Z,41
2022-12-25T08:03:32.579Z,44
2022-12-25T08:05:40.069Z,44
2022-12-25T08:06:46.798Z,54
2022-12-25T08:07:57.508Z,48
2022-12-25T08:09:01.239Z,54
2022-12-25T08:10:08.366Z,50
2022-12-25T08:14:08.898Z,51
2022-12-25T08:15:16.029Z,49
2022-12-25T08:16:23.268Z,52
2022-12-25T08:17:30.293Z,50
2022-12-25T08:19:32.053Z,61
2022-12-25T08:20:39.265Z,54
2022-12-25T08:21:46.522Z,52
2022-12-25T08:22:53.698Z,57
2022-12-25T08:24:00.706Z,67
2022-12-25T08:26:37.391Z,67
2022-12-25T08:27:44.289Z,67
2022-12-25T08:28:51.486Z,68
2022-12-25T08:29:58.625Z,71
2022-12-25T08:31:05.850Z,76
2022-12-25T09:14:38.348Z,85
2022-12-25T09:15:45.770Z,90
2022-12-25T09:16:52.829Z,88
2022-12-25T09:17:59.904Z,92
2022-12-25T09:40:05.912Z,92
2022-12-25T09:41:13.207Z,27
2022-12-25T09:42:25.584Z,25
2022-12-25T09:43:32.921Z,33
2022-12-25T09:44:42.829Z,31
2022-12-25T10:26:47.488Z,35
2022-12-25T10:27:54.379Z,31
2022-12-25T10:29:06.772Z,25
2022-12-25T10:30:19.205Z,38
2022-12-25T10:31:50.705Z,25
2022-12-25T10:32:57.996Z,25
2022-12-25T10:34:05.162Z,25
2022-12-25T10:35:13.140Z,25
2022-12-25T10:36:22.999Z,25
2022-12-25T10:37:33.824Z,42
2022-12-25T10:38:41.101Z,29
2022-12-25T10:39:48.378Z,30
2022-12-25T10:40:55.712Z,31
2022-12-25T10:42:07.739Z,31
2022-12-25T10:43:43.032Z,33
2022-12-25T10:44:52.893Z,31
2022-12-25T10:46:03.137Z,27
2022-12-25T10:47:12.841Z,28
2022-12-25T10:48:19.952Z,28
2022-12-25T10:53:02.321Z,32
2022-12-25T10:54:09.241Z,32
2022-12-25T10:55:26.702Z,27
2022-12-25T10:56:28.675Z,29
2022-12-25T10:57:35.840Z,37
2022-12-25T10:58:47.720Z,30
2022-12-25T10:59:54.896Z,31
2022-12-25T11:01:02.094Z,34
2022-12-25T11:02:09.317Z,33
2022-12-25T11:04:17.036Z,25
2022-12-25T11:05:29.343Z,25
2022-12-25T11:06:36.358Z,33
2022-12-25T11:07:43.203Z,34
2022-12-25T11:08:55.549Z,39
2022-12-25T11:10:05.490Z,46
2022-12-25T11:11:10.095Z,43
2022-12-25T11:12:16.938Z,36
2022-12-25T11:13:24.164Z,30
2022-12-25T11:14:31.291Z,32
2022-12-25T11:15:38.175Z,40
2022-12-25T11:16:50.334Z,27
2022-12-25T11:17:57.519Z,25
2022-12-25T11:22:27.661Z,34
2022-12-25T11:23:34.867Z,31
2022-12-25T11:24:42.172Z,34
2022-12-25T11:25:49.393Z,28
2022-12-25T11:27:00.844Z,36
2022-12-25T11:28:07.830Z,31
2022-12-25T11:29:14.975Z,39
2022-12-25T11:30:32.279Z,41
2022-12-25T11:31:39.148Z,35
2022-12-25T11:32:52.607Z,29
2022-12-25T11:33:59.463Z,30
2022-12-25T11:35:11.823Z,25
2022-12-25T11:36:19.018Z,35
2022-12-25T11:37:33.702Z,34
2022-12-25T11:38:50.698Z,37
2022-12-25T11:39:57.715Z,30
2022-12-25T11:41:04.719Z,30
2022-12-25T11:42:11.734Z,30
2022-12-25T11:43:18.860Z,30
2022-12-25T11:44:32.874Z,30
2022-12-25T11:45:47.799Z,30
2022-12-25T11:46:58.095Z,30
2022-12-25T11:48:06.048Z,30
2022-12-25T11:49:18.452Z,30
2022-12-25T11:50:41.444Z,30
2022-12-25T11:51:54.296Z,30
2022-12-25T11:53:01.051Z,30
2022-12-25T11:54:18.653Z,30
2022-12-25T11:55:28.204Z,30
2022-12-25T11:56:41.860Z,42
2022-12-25T11:57:49.043Z,42
2022-12-25T11:58:56.039Z,34
2022-12-25T12:00:10.826Z,27
2022-12-25T12:01:18.089Z,27
2022-12-25T12:02:33.465Z,38
2022-12-25T12:03:42.822Z,38
2022-12-25T12:04:49.910Z,34
2022-12-25T12:05:57.087Z,33
2022-12-25T12:07:06.880Z,32
2022-12-25T12:08:22.551Z,29
2022-12-25T12:09:29.639Z,25
2022-12-25T12:10:44.700Z,25
2022-12-25T12:12:02.089Z,42
2022-12-25T12:14:03.653Z,33
2022-12-25T12:15:18.815Z,35
2022-12-25T12:16:31.288Z,36
2022-12-25T12:17:38.219Z,34
2022-12-25T12:18:49.970Z,37
2022-12-25T12:20:27.178Z,38
2022-12-25T12:21:34.219Z,38
2022-12-25T12:22:41.316Z,25
2022-12-25T12:23:48.392Z,30
2022-12-25T12:25:04.237Z,36
2022-12-25T12:29:05.214Z,30
2022-12-25T12:30:12.234Z,25
2022-12-25T12:31:24.579Z,29
2022-12-25T12:32:42.159Z,30
2022-12-25T12:33:49.294Z,30
2022-12-25T12:48:02.237Z,56
2022-12-25T12:49:19.506Z,54
2022-12-25T12:50:29.810Z,54
2022-12-25T12:51:40.137Z,54
2022-12-25T12:53:14.492Z,53
2022-12-25T12:54:26.727Z,44
2022-12-25T12:55:34.077Z,57
2022-12-25T12:56:41.599Z,57
2022-12-25T12:57:59.241Z,56
2022-12-25T12:59:23.275Z,57
2022-12-25T13:00:30.289Z,53
2022-12-25T13:01:48.217Z,53
2022-12-25T13:02:55.162Z,53
2022-12-25T13:04:12.406Z,62
2022-12-25T13:08:47.912Z,56
2022-12-25T13:09:55.191Z,56
2022-12-25T13:11:07.286Z,59
2022-12-25T13:12:22.173Z,62
2022-12-25T13:13:37.647Z,58
2022-12-25T13:14:44.891Z,48
2022-12-25T13:15:51.901Z,57
2022-12-25T13:16:59.066Z,57
2022-12-25T13:18:06.099Z,57
2022-12-25T13:20:23.216Z,57
2022-12-25T13:21:30.426Z,57
2022-12-25T13:22:37.560Z,63
2022-12-25T13:23:44.666Z,59
2022-12-25T13:24:51.790Z,67
2022-12-25T13:26:01.557Z,57
2022-12-25T13:27:08.709Z,64
2022-12-25T13:28:26.054Z,72
2022-12-25T13:29:33.229Z,70
2022-12-25T13:30:48.519Z,69
2022-12-25T13:31:55.560Z,68
2022-12-25T13:33:02.575Z,70
2022-12-25T13:34:09.738Z,72
2022-12-25T13:35:16.892Z,78
2022-12-25T13:49:13.388Z,92
2022-12-25T13:50:20.601Z,90
2022-12-25T13:51:30.752Z,89
2022-12-25T13:52:37.599Z,92
2022-12-25T14:26:11.958Z,113
2022-12-25T14:27:21.559Z,116
2022-12-25T14:28:28.745Z,120
2022-12-25T14:29:35.901Z,113
2022-12-25T15:25:34.988Z,115
2022-12-25T15:26:41.963Z,109
2022-12-25T15:27:49.286Z,110
2022-12-25T15:28:56.336Z,111
2022-12-25T15:30:11.272Z,97
2022-12-25T15:32:43.703Z,97
2022-12-25T15:33:50.969Z,103
2022-12-25T15:34:57.855Z,98
2022-12-25T15:36:05.031Z,98
2022-12-25T15:37:12.144Z,97
2022-12-25T15:46:05.667Z,97
2022-12-25T15:47:12.801Z,96
2022-12-25T15:48:19.943Z,100
2022-12-25T15:49:27.174Z,123
2022-12-25T15:50:34.355Z,115
2022-12-25T15:51:44.068Z,124
2022-12-25T15:52:50.991Z,101
2022-12-25T15:53:58.455Z,103
2022-12-25T15:55:05.183Z,110
2022-12-25T15:56:12.896Z,97
2022-12-25T15:57:19.957Z,104
2022-12-25T15:58:27.180Z,124
2022-12-25T15:59:34.499Z,109
2022-12-25T16:00:41.770Z,117
2022-12-25T16:01:48.987Z,96
2022-12-25T16:02:56.241Z,115
2022-12-25T16:04:04.044Z,105
2022-12-25T16:05:10.903Z,95
2022-12-25T16:06:18.224Z,92
2022-12-25T16:07:25.290Z,92
2022-12-25T16:08:32.400Z,94
2022-12-25T16:09:39.179Z,82
2022-12-25T16:10:46.397Z,90
2022-12-25T16:11:53.647Z,81
2022-12-25T16:13:00.804Z,96
2022-12-25T16:14:07.902Z,87
2022-12-25T16:15:15.095Z,98
2022-12-25T16:16:23.056Z,91
2022-12-25T16:17:29.898Z,101
2022-12-25T16:18:39.692Z,100
2022-12-25T16:19:44.055Z,98
2022-12-25T16:20:52.895Z,83
2022-12-25T16:21:59.714Z,99
2022-12-25T16:23:06.845Z,107
2022-12-25T16:24:14.028Z,106
2022-12-25T16:25:21.228Z,83
2022-12-25T16:26:28.909Z,95
2022-12-25T16:27:36.066Z,104
2022-12-25T16:28:42.870Z,90
2022-12-25T16:29:50.069Z,103
2022-12-25T16:30:57.234Z,105
2022-12-25T16:32:09.578Z,97
2022-12-25T16:33:16.662Z,97
2022-12-25T16:34:23.815Z,89
2022-12-25T16:35:31.163Z,84
2022-12-25T16:36:38.187Z,92
2022-12-25T16:37:44.935Z,78
2022-12-25T16:38:52.104Z,88
2022-12-25T16:39:59.311Z,76
2022-12-25T16:41:06.507Z,88
2022-12-25T16:42:13.600Z,76
2022-12-25T16:43:24.067Z,68
2022-12-25T16:44:27.886Z,81
2022-12-25T16:45:35.043Z,78
2022-12-25T16:46:42.973Z,69
2022-12-25T16:47:49.978Z,74
2022-12-25T16:48:57.303Z,70
2022-12-25T16:50:04.403Z,72
2022-12-25T16:51:11.481Z,68
2022-12-25T16:52:21.215Z,68
2022-12-25T16:53:28.363Z,84
2022-12-25T16:54:35.546Z,88
2022-12-25T16:55:42.541Z,67
2022-12-25T16:56:54.611Z,92
2022-12-25T16:58:01.923Z,65
2022-12-25T16:59:09.038Z,73
2022-12-25T17:00:16.214Z,73
2022-12-25T17:01:23.473Z,89
2022-12-25T17:02:40.424Z,88
2022-12-25T17:03:47.099Z,70
2022-12-25T17:04:54.175Z,89
2022-12-25T17:06:01.559Z,76
2022-12-25T17:07:08.511Z,71
2022-12-25T17:08:15.690Z,78
2022-12-25T17:09:22.542Z,67
2022-12-25T17:10:30.681Z,63
2022-12-25T17:11:37.806Z,70
2022-12-25T17:12:44.943Z,64
2022-12-25T17:13:51.742Z,72
2022-12-25T17:15:05.082Z,66
2022-12-25T17:16:12.276Z,74
2022-12-25T17:17:19.399Z,74
2022-12-25T17:18:26.566Z,64
2022-12-25T17:19:33.780Z,76
2022-12-25T17:20:40.663Z,66
2022-12-25T17:21:53.007Z,71
2022-12-25T17:23:00.128Z,53
2022-12-25T17:24:10.270Z,70
2022-12-25T17:25:17.375Z,72
2022-12-25T17:26:24.077Z,79
2022-12-25T17:27:31.259Z,77
2022-12-25T17:28:38.382Z,76
2022-12-25T17:29:45.372Z,76
2022-12-25T17:31:12.812Z,76
2022-12-25T17:32:20.053Z,73
2022-12-25T17:33:27.327Z,73
2022-12-25T17:34:34.432Z,79
2022-12-25T17:35:41.256Z,75
2022-12-25T17:36:59.359Z,74
2022-12-25T17:38:06.422Z,76
2022-12-25T17:39:13.566Z,78
2022-12-25T17:40:20.694Z,77
2022-12-25T17:41:27.703Z,78
2022-12-25T17:42:34.438Z,79
2022-12-25T17:43:41.328Z,79
2022-12-25T17:44:48.673Z,81
2022-12-25T17:45:55.570Z,83
2022-12-25T17:47:39.434Z,61
2022-12-25T17:48:46.533Z,74
2022-12-25T17:49:54.051Z,78
2022-12-25T17:51:01.246Z,78
2022-12-25T17:52:11.083Z,71
2022-12-25T17:54:40.850Z,71
2022-12-25T17:55:48.042Z,80
2022-12-25T17:56:55.123Z,79
2022-12-25T17:58:02.321Z,65
2022-12-25T17:59:09.501Z,81
2022-12-25T18:27:24.272Z,65
2022-12-25T18:28:31.530Z,71
2022-12-25T18:29:38.705Z,71
2022-12-25T18:30:45.612Z,67
2022-12-25T18:31:52.889Z,65
2022-12-25T19:52:29.373Z,98
2022-12-25T19:53:36.401Z,103
2022-12-25T19:54:43.301Z,107
2022-12-25T19:55:50.461Z,104
2022-12-25T19:57:53.341Z,104
2022-12-25T19:59:00.394Z,111
2022-12-25T20:00:07.340Z,108
2022-12-25T20:01:14.490Z,106
2022-12-25T20:02:21.678Z,113
2022-12-25T20:03:45.667Z,111
2022-12-25T20:04:51.245Z,110
2022-12-25T20:05:58.395Z,112
2022-12-25T20:07:05.266Z,115
2022-12-25T20:08:12.503Z,114
2022-12-25T20:24:12.090Z,114
2022-12-25T20:25:19.258Z,118
2022-12-25T20:26:26.382Z,114
2022-12-25T20:27:33.729Z,119
2022-12-25T20:28:41.009Z,118
2022-12-25T20:29:48.071Z,116
2022-12-25T20:30:55.255Z,118
2022-12-25T20:32:02.479Z,116
2022-12-25T20:33:09.515Z,111
2022-12-25T21:21:07.852Z,111
2022-12-25T21:22:14.469Z,99
2022-12-25T21:23:21.703Z,96
2022-12-25T21:24:28.792Z,96
2022-12-25T21:25:36.077Z,97
2022-12-25T21:27:21.994Z,99
2022-12-25T21:28:28.878Z,97
2022-12-25T21:29:35.970Z,99
2022-12-25T21:30:42.927Z,100
2022-12-25T21:31:50.870Z,98
2022-12-25T21:33:06.388Z,98
2022-12-25T21:34:18.729Z,97
2022-12-25T21:35:25.813Z,101
2022-12-25T21:36:32.966Z,98
2022-12-25T21:37:39.757Z,107
2022-12-25T21:48:48.037Z,115
2022-12-25T21:49:55.198Z,119
2022-12-25T21:51:07.518Z,122
2022-12-25T21:52:19.783Z,116
2022-12-25T21:57:50.166Z,116
2022-12-25T21:58:57.261Z,121
2022-12-25T22:00:04.478Z,121
2022-12-25T22:01:12.296Z,121
2022-12-25T22:02:19.567Z,117
2022-12-25T22:21:22.611Z,117
2022-12-25T22:22:29.822Z,104
2022-12-25T22:23:36.842Z,106
2022-12-25T22:24:43.638Z,105
2022-12-25T22:25:50.867Z,103
2022-12-25T22:37:30.104Z,97
2022-12-25T22:38:36.957Z,95
2022-12-25T22:39:43.790Z,99
2022-12-25T22:40:50.965Z,99
2022-12-25T22:41:58.184Z,100
2022-12-25T22:44:06.614Z,93
2022-12-25T22:44:42.380Z,92
2022-12-25T22:45:49.470Z,92
2022-12-25T22:46:56.594Z,97
2022-12-25T22:48:03.832Z,93
2022-12-25T23:02:32.828Z,83
2022-12-25T23:03:39.937Z,82
2022-12-25T23:04:47.000Z,78
2022-12-25T23:05:54.249Z,78
2022-12-25T23:24:27.431Z,84
2022-12-25T23:25:39.688Z,76
2022-12-25T23:26:51.719Z,74
2022-12-25T23:27:58.868Z,77
2022-12-25T23:29:06.028Z,70
2022-12-25T23:34:20.973Z,72
2022-12-25T23:35:28.040Z,71
2022-12-25T23:36:35.200Z,71
2022-12-25T23:37:41.996Z,70
2022-12-25T23:38:49.189Z,66
2022-12-25T23:41:36.727Z,66
2022-12-25T23:42:43.576Z,70
2022-12-25T23:43:50.908Z,71
2022-12-25T23:44:58.049Z,74
2022-12-25T23:46:05.179Z,66
2022-12-25T23:48:14.179Z,66
2022-12-25T23:49:21.023Z,67
2022-12-25T23:50:28.153Z,61
2022-12-25T23:51:35.324Z,67
2022-12-25T23:52:42.197Z,64
2022-12-25T23:57:47.256Z,68
2022-12-25T23:58:54.135Z,63
